sensor_id;sensor_type;location;lat;lon;timestamp;P1;durP1;ratioP1;P2;durP2;ratioP2
40637;SDS011;26336;44.696;10.622;2023-02-04T00:00:47;50.77;;;33.57;;
40637;SDS011;26336;44.696;10.622;2023-02-04T00:03:51;49.93;;;32.20;;
40637;SDS011;26336;44.696;10.622;2023-02-04T00:06:55;48.67;;;31.63;;
40637;SDS011;26336;44.696;10.622;2023-02-04T00:10:02;51.00;;;31.97;;
40637;SDS011;26336;44.696;10.622;2023-02-04T00:13:07;52.60;;;34.53;;
40637;SDS011;26336;44.696;10.622;2023-02-04T00:16:11;52.30;;;32.17;;
40637;SDS011;26336;44.696;10.622;2023-02-04T00:19:15;54.50;;;33.63;;
40637;SDS011;26336;44.696;10.622;2023-02-04T00:22:19;57.73;;;35.50;;
40637;SDS011;26336;44.696;10.622;2023-02-04T00:25:23;59.27;;;37.03;;
40637;SDS011;26336;44.696;10.622;2023-02-04T00:28:28;57.07;;;35.37;;
40637;SDS011;26336;44.696;10.622;2023-02-04T00:31:35;54.30;;;34.80;;
40637;SDS011;26336;44.696;10.622;2023-02-04T00:34:39;56.53;;;35.37;;
40637;SDS011;26336;44.696;10.622;2023-02-04T00:37:43;64.20;;;39.33;;
40637;SDS011;26336;44.696;10.622;2023-02-04T00:40:46;60.13;;;37.87;;
40637;SDS011;26336;44.696;10.622;2023-02-04T00:43:50;62.03;;;39.87;;
40637;SDS011;26336;44.696;10.622;2023-02-04T00:46:55;60.07;;;37.40;;
40637;SDS011;26336;44.696;10.622;2023-02-04T00:49:59;61.10;;;36.63;;
40637;SDS011;26336;44.696;10.622;2023-02-04T00:53:03;57.07;;;36.80;;
40637;SDS011;26336;44.696;10.622;2023-02-04T00:56:07;59.60;;;36.93;;
40637;SDS011;26336;44.696;10.622;2023-02-04T00:59:11;51.70;;;34.80;;
40637;SDS011;26336;44.696;10.622;2023-02-04T01:02:15;58.47;;;36.33;;
40637;SDS011;26336;44.696;10.622;2023-02-04T01:05:19;58.00;;;35.30;;
40637;SDS011;26336;44.696;10.622;2023-02-04T01:08:23;59.80;;;36.20;;
40637;SDS011;26336;44.696;10.622;2023-02-04T01:11:27;56.33;;;35.50;;
40637;SDS011;26336;44.696;10.622;2023-02-04T01:14:32;60.13;;;37.00;;
40637;SDS011;26336;44.696;10.622;2023-02-04T01:17:36;54.73;;;35.63;;
40637;SDS011;26336;44.696;10.622;2023-02-04T01:20:39;62.67;;;37.57;;
40637;SDS011;26336;44.696;10.622;2023-02-04T01:23:43;62.60;;;36.70;;
40637;SDS011;26336;44.696;10.622;2023-02-04T01:26:47;58.70;;;37.77;;
40637;SDS011;26336;44.696;10.622;2023-02-04T01:29:54;56.53;;;35.23;;
40637;SDS011;26336;44.696;10.622;2023-02-04T01:32:57;58.80;;;38.20;;
40637;SDS011;26336;44.696;10.622;2023-02-04T01:36:01;53.83;;;34.30;;
40637;SDS011;26336;44.696;10.622;2023-02-04T01:39:05;51.63;;;33.23;;
40637;SDS011;26336;44.696;10.622;2023-02-04T01:42:09;55.20;;;34.83;;
40637;SDS011;26336;44.696;10.622;2023-02-04T01:45:14;52.20;;;32.83;;
40637;SDS011;26336;44.696;10.622;2023-02-04T01:48:19;49.87;;;34.10;;
40637;SDS011;26336;44.696;10.622;2023-02-04T01:51:25;46.80;;;33.70;;
40637;SDS011;26336;44.696;10.622;2023-02-04T01:54:32;54.87;;;33.63;;
40637;SDS011;26336;44.696;10.622;2023-02-04T01:57:35;59.67;;;33.47;;
40637;SDS011;26336;44.696;10.622;2023-02-04T02:00:39;50.73;;;33.80;;
40637;SDS011;26336;44.696;10.622;2023-02-04T02:03:44;48.47;;;31.93;;
40637;SDS011;26336;44.696;10.622;2023-02-04T02:06:52;52.50;;;33.77;;
40637;SDS011;26336;44.696;10.622;2023-02-04T02:10:02;53.58;;;33.10;;
40637;SDS011;26336;44.696;10.622;2023-02-04T02:13:09;55.90;;;36.67;;
40637;SDS011;26336;44.696;10.622;2023-02-04T02:16:15;52.80;;;33.37;;
40637;SDS011;26336;44.696;10.622;2023-02-04T02:19:25;52.23;;;34.03;;
40637;SDS011;26336;44.696;10.622;2023-02-04T02:22:57;55.67;;;34.00;;
40637;SDS011;26336;44.696;10.622;2023-02-04T02:26:09;50.37;;;31.90;;
40637;SDS011;26336;44.696;10.622;2023-02-04T02:29:13;49.60;;;33.10;;
40637;SDS011;26336;44.696;10.622;2023-02-04T02:32:17;51.37;;;32.83;;
40637;SDS011;26336;44.696;10.622;2023-02-04T02:35:21;55.37;;;35.50;;
40637;SDS011;26336;44.696;10.622;2023-02-04T02:38:26;49.87;;;33.97;;
40637;SDS011;26336;44.696;10.622;2023-02-04T02:41:30;54.30;;;33.33;;
40637;SDS011;26336;44.696;10.622;2023-02-04T02:44:34;56.43;;;36.67;;
40637;SDS011;26336;44.696;10.622;2023-02-04T02:47:38;53.33;;;32.20;;
40637;SDS011;26336;44.696;10.622;2023-02-04T02:50:42;53.07;;;32.77;;
40637;SDS011;26336;44.696;10.622;2023-02-04T02:53:46;48.10;;;30.93;;
40637;SDS011;26336;44.696;10.622;2023-02-04T02:56:52;47.17;;;31.33;;
40637;SDS011;26336;44.696;10.622;2023-02-04T03:04:33;48.60;;;30.33;;
40637;SDS011;26336;44.696;10.622;2023-02-04T03:07:42;41.97;;;29.67;;
40637;SDS011;26336;44.696;10.622;2023-02-04T03:10:46;47.17;;;29.10;;
40637;SDS011;26336;44.696;10.622;2023-02-04T03:14:00;48.60;;;28.90;;
40637;SDS011;26336;44.696;10.622;2023-02-04T03:18:54;46.97;;;29.63;;
40637;SDS011;26336;44.696;10.622;2023-02-04T03:22:05;47.13;;;30.23;;
40637;SDS011;26336;44.696;10.622;2023-02-04T03:25:10;51.27;;;29.17;;
40637;SDS011;26336;44.696;10.622;2023-02-04T03:28:13;43.87;;;29.27;;
40637;SDS011;26336;44.696;10.622;2023-02-04T03:31:27;41.27;;;28.83;;
40637;SDS011;26336;44.696;10.622;2023-02-04T03:34:37;46.27;;;29.10;;
40637;SDS011;26336;44.696;10.622;2023-02-04T03:37:41;44.67;;;29.37;;
40637;SDS011;26336;44.696;10.622;2023-02-04T03:40:45;44.03;;;28.63;;
40637;SDS011;26336;44.696;10.622;2023-02-04T03:43:50;46.77;;;29.50;;
40637;SDS011;26336;44.696;10.622;2023-02-04T03:46:56;40.60;;;27.17;;
40637;SDS011;26336;44.696;10.622;2023-02-04T03:50:03;39.07;;;26.00;;
40637;SDS011;26336;44.696;10.622;2023-02-04T03:53:19;42.93;;;27.93;;
40637;SDS011;26336;44.696;10.622;2023-02-04T03:56:24;47.93;;;29.23;;
40637;SDS011;26336;44.696;10.622;2023-02-04T03:59:36;41.80;;;26.90;;
40637;SDS011;26336;44.696;10.622;2023-02-04T04:02:47;43.23;;;28.67;;
40637;SDS011;26336;44.696;10.622;2023-02-04T04:05:51;42.23;;;27.87;;
40637;SDS011;26336;44.696;10.622;2023-02-04T04:08:55;39.27;;;26.33;;
40637;SDS011;26336;44.696;10.622;2023-02-04T04:11:59;46.83;;;29.33;;
40637;SDS011;26336;44.696;10.622;2023-02-04T04:15:03;45.70;;;27.80;;
40637;SDS011;26336;44.696;10.622;2023-02-04T04:18:08;43.30;;;27.97;;
40637;SDS011;26336;44.696;10.622;2023-02-04T04:21:12;38.97;;;26.07;;
40637;SDS011;26336;44.696;10.622;2023-02-04T04:24:16;46.53;;;27.97;;
40637;SDS011;26336;44.696;10.622;2023-02-04T04:27:20;39.00;;;25.97;;
40637;SDS011;26336;44.696;10.622;2023-02-04T04:30:26;47.43;;;29.07;;
40637;SDS011;26336;44.696;10.622;2023-02-04T04:33:31;40.37;;;27.53;;
40637;SDS011;26336;44.696;10.622;2023-02-04T04:36:35;38.87;;;24.50;;
40637;SDS011;26336;44.696;10.622;2023-02-04T04:39:39;42.80;;;26.80;;
40637;SDS011;26336;44.696;10.622;2023-02-04T04:42:43;43.23;;;26.50;;
40637;SDS011;26336;44.696;10.622;2023-02-04T04:45:47;40.27;;;25.23;;
40637;SDS011;26336;44.696;10.622;2023-02-04T04:48:51;42.57;;;25.90;;
40637;SDS011;26336;44.696;10.622;2023-02-04T04:51:55;46.27;;;28.50;;
40637;SDS011;26336;44.696;10.622;2023-02-04T04:54:59;44.77;;;27.23;;
40637;SDS011;26336;44.696;10.622;2023-02-04T04:58:03;39.73;;;25.40;;
40637;SDS011;26336;44.696;10.622;2023-02-04T05:01:08;46.57;;;28.37;;
40637;SDS011;26336;44.696;10.622;2023-02-04T05:04:12;39.63;;;26.17;;
40637;SDS011;26336;44.696;10.622;2023-02-04T05:07:16;42.10;;;27.40;;
40637;SDS011;26336;44.696;10.622;2023-02-04T05:10:20;40.63;;;25.37;;
40637;SDS011;26336;44.696;10.622;2023-02-04T05:13:27;46.00;;;28.00;;
40637;SDS011;26336;44.696;10.622;2023-02-04T05:16:31;37.37;;;25.77;;
40637;SDS011;26336;44.696;10.622;2023-02-04T05:19:35;41.20;;;25.07;;
40637;SDS011;26336;44.696;10.622;2023-02-04T05:22:38;39.67;;;25.90;;
40637;SDS011;26336;44.696;10.622;2023-02-04T05:25:42;43.67;;;26.27;;
40637;SDS011;26336;44.696;10.622;2023-02-04T05:28:46;42.60;;;26.27;;
40637;SDS011;26336;44.696;10.622;2023-02-04T05:31:50;45.43;;;27.83;;
40637;SDS011;26336;44.696;10.622;2023-02-04T05:34:54;42.07;;;27.90;;
40637;SDS011;26336;44.696;10.622;2023-02-04T05:37:58;41.10;;;26.30;;
40637;SDS011;26336;44.696;10.622;2023-02-04T05:41:02;40.73;;;25.40;;
40637;SDS011;26336;44.696;10.622;2023-02-04T05:44:06;44.20;;;26.53;;
40637;SDS011;26336;44.696;10.622;2023-02-04T05:47:10;40.33;;;25.73;;
40637;SDS011;26336;44.696;10.622;2023-02-04T05:50:14;37.87;;;24.20;;
40637;SDS011;26336;44.696;10.622;2023-02-04T05:53:18;36.90;;;25.13;;
40637;SDS011;26336;44.696;10.622;2023-02-04T05:56:23;45.43;;;28.20;;
40637;SDS011;26336;44.696;10.622;2023-02-04T06:02:57;41.10;;;25.73;;
40637;SDS011;26336;44.696;10.622;2023-02-04T06:06:01;39.90;;;26.03;;
40637;SDS011;26336;44.696;10.622;2023-02-04T06:09:05;38.70;;;24.07;;
40637;SDS011;26336;44.696;10.622;2023-02-04T06:12:09;44.20;;;25.87;;
40637;SDS011;26336;44.696;10.622;2023-02-04T06:15:13;38.30;;;25.23;;
40637;SDS011;26336;44.696;10.622;2023-02-04T06:18:17;43.17;;;25.23;;
40637;SDS011;26336;44.696;10.622;2023-02-04T06:21:21;41.10;;;25.97;;
40637;SDS011;26336;44.696;10.622;2023-02-04T06:24:26;37.23;;;24.63;;
40637;SDS011;26336;44.696;10.622;2023-02-04T06:27:29;39.90;;;24.83;;
40637;SDS011;26336;44.696;10.622;2023-02-04T06:30:33;38.10;;;23.93;;
40637;SDS011;26336;44.696;10.622;2023-02-04T06:33:39;39.10;;;25.17;;
40637;SDS011;26336;44.696;10.622;2023-02-04T06:36:43;41.30;;;25.17;;
40637;SDS011;26336;44.696;10.622;2023-02-04T06:39:50;39.73;;;24.97;;
40637;SDS011;26336;44.696;10.622;2023-02-04T06:42:56;36.97;;;23.93;;
40637;SDS011;26336;44.696;10.622;2023-02-04T06:46:00;38.37;;;24.67;;
40637;SDS011;26336;44.696;10.622;2023-02-04T06:49:04;39.90;;;23.97;;
40637;SDS011;26336;44.696;10.622;2023-02-04T06:52:08;36.57;;;23.77;;
40637;SDS011;26336;44.696;10.622;2023-02-04T06:55:15;38.93;;;24.03;;
40637;SDS011;26336;44.696;10.622;2023-02-04T06:58:20;33.47;;;21.73;;
40637;SDS011;26336;44.696;10.622;2023-02-04T07:01:27;36.23;;;23.43;;
40637;SDS011;26336;44.696;10.622;2023-02-04T07:04:30;44.40;;;25.80;;
40637;SDS011;26336;44.696;10.622;2023-02-04T07:07:35;39.73;;;23.20;;
40637;SDS011;26336;44.696;10.622;2023-02-04T07:10:38;36.93;;;21.40;;
40637;SDS011;26336;44.696;10.622;2023-02-04T07:13:42;38.17;;;22.17;;
40637;SDS011;26336;44.696;10.622;2023-02-04T07:16:46;33.77;;;19.37;;
40637;SDS011;26336;44.696;10.622;2023-02-04T07:19:50;29.57;;;19.87;;
40637;SDS011;26336;44.696;10.622;2023-02-04T07:22:55;31.67;;;19.77;;
40637;SDS011;26336;44.696;10.622;2023-02-04T07:25:59;30.17;;;20.47;;
40637;SDS011;26336;44.696;10.622;2023-02-04T07:29:02;31.83;;;19.10;;
40637;SDS011;26336;44.696;10.622;2023-02-04T07:32:06;30.67;;;17.53;;
40637;SDS011;26336;44.696;10.622;2023-02-04T07:35:10;27.53;;;17.90;;
40637;SDS011;26336;44.696;10.622;2023-02-04T07:38:14;31.03;;;18.33;;
40637;SDS011;26336;44.696;10.622;2023-02-04T07:41:18;28.93;;;18.60;;
40637;SDS011;26336;44.696;10.622;2023-02-04T07:44:30;28.57;;;18.27;;
40637;SDS011;26336;44.696;10.622;2023-02-04T07:47:34;32.47;;;19.03;;
40637;SDS011;26336;44.696;10.622;2023-02-04T07:50:38;26.60;;;18.00;;
40637;SDS011;26336;44.696;10.622;2023-02-04T07:53:42;31.57;;;19.17;;
40637;SDS011;26336;44.696;10.622;2023-02-04T07:56:46;28.50;;;19.03;;
40637;SDS011;26336;44.696;10.622;2023-02-04T07:59:50;29.77;;;17.53;;
40637;SDS011;26336;44.696;10.622;2023-02-04T08:02:54;31.20;;;18.27;;
40637;SDS011;26336;44.696;10.622;2023-02-04T08:05:58;25.50;;;17.90;;
40637;SDS011;26336;44.696;10.622;2023-02-04T08:09:02;25.50;;;16.27;;
40637;SDS011;26336;44.696;10.622;2023-02-04T08:12:06;26.10;;;17.13;;
40637;SDS011;26336;44.696;10.622;2023-02-04T08:15:10;24.10;;;16.03;;
40637;SDS011;26336;44.696;10.622;2023-02-04T08:18:14;28.63;;;17.53;;
40637;SDS011;26336;44.696;10.622;2023-02-04T08:21:18;26.87;;;17.20;;
40637;SDS011;26336;44.696;10.622;2023-02-04T08:24:21;29.60;;;18.73;;
40637;SDS011;26336;44.696;10.622;2023-02-04T08:27:25;29.33;;;19.67;;
40637;SDS011;26336;44.696;10.622;2023-02-04T08:30:29;25.97;;;16.77;;
40637;SDS011;26336;44.696;10.622;2023-02-04T08:33:33;26.57;;;17.90;;
40637;SDS011;26336;44.696;10.622;2023-02-04T08:36:37;32.43;;;18.07;;
40637;SDS011;26336;44.696;10.622;2023-02-04T08:39:41;24.20;;;17.17;;
40637;SDS011;26336;44.696;10.622;2023-02-04T08:42:48;24.93;;;17.53;;
40637;SDS011;26336;44.696;10.622;2023-02-04T08:45:52;27.17;;;17.97;;
40637;SDS011;26336;44.696;10.622;2023-02-04T08:48:56;25.07;;;16.93;;
40637;SDS011;26336;44.696;10.622;2023-02-04T08:52:00;24.13;;;15.77;;
40637;SDS011;26336;44.696;10.622;2023-02-04T08:55:05;26.50;;;16.67;;
40637;SDS011;26336;44.696;10.622;2023-02-04T08:58:09;22.10;;;15.00;;
40637;SDS011;26336;44.696;10.622;2023-02-04T09:01:13;22.83;;;15.43;;
40637;SDS011;26336;44.696;10.622;2023-02-04T09:04:18;28.20;;;17.87;;
40637;SDS011;26336;44.696;10.622;2023-02-04T09:07:23;24.53;;;14.40;;
40637;SDS011;26336;44.696;10.622;2023-02-04T09:10:27;20.33;;;14.57;;
40637;SDS011;26336;44.696;10.622;2023-02-04T09:13:31;22.40;;;13.33;;
40637;SDS011;26336;44.696;10.622;2023-02-04T09:16:35;24.53;;;14.37;;
40637;SDS011;26336;44.696;10.622;2023-02-04T09:19:39;24.00;;;15.60;;
40637;SDS011;26336;44.696;10.622;2023-02-04T09:22:43;26.57;;;15.10;;
40637;SDS011;26336;44.696;10.622;2023-02-04T09:25:47;19.37;;;12.90;;
40637;SDS011;26336;44.696;10.622;2023-02-04T09:28:51;20.00;;;14.20;;
40637;SDS011;26336;44.696;10.622;2023-02-04T09:31:55;21.33;;;14.43;;
40637;SDS011;26336;44.696;10.622;2023-02-04T09:35:00;18.87;;;14.00;;
40637;SDS011;26336;44.696;10.622;2023-02-04T09:38:04;21.47;;;13.90;;
40637;SDS011;26336;44.696;10.622;2023-02-04T09:41:09;19.00;;;14.93;;
40637;SDS011;26336;44.696;10.622;2023-02-04T09:44:18;19.13;;;13.93;;
40637;SDS011;26336;44.696;10.622;2023-02-04T09:47:23;26.60;;;16.30;;
40637;SDS011;26336;44.696;10.622;2023-02-04T09:50:29;26.30;;;17.13;;
40637;SDS011;26336;44.696;10.622;2023-02-04T09:53:35;28.50;;;17.43;;
40637;SDS011;26336;44.696;10.622;2023-02-04T09:56:40;25.53;;;16.77;;
40637;SDS011;26336;44.696;10.622;2023-02-04T09:59:47;21.07;;;15.80;;
40637;SDS011;26336;44.696;10.622;2023-02-04T10:02:54;23.53;;;16.10;;
40637;SDS011;26336;44.696;10.622;2023-02-04T10:06:02;22.17;;;15.87;;
40637;SDS011;26336;44.696;10.622;2023-02-04T10:09:08;21.47;;;15.40;;
40637;SDS011;26336;44.696;10.622;2023-02-04T10:12:17;28.03;;;16.93;;
40637;SDS011;26336;44.696;10.622;2023-02-04T10:15:21;23.23;;;15.80;;
40637;SDS011;26336;44.696;10.622;2023-02-04T10:18:27;26.50;;;16.17;;
40637;SDS011;26336;44.696;10.622;2023-02-04T10:21:33;23.53;;;15.70;;
40637;SDS011;26336;44.696;10.622;2023-02-04T10:24:39;20.93;;;14.60;;
40637;SDS011;26336;44.696;10.622;2023-02-04T10:28:01;24.63;;;14.73;;
40637;SDS011;26336;44.696;10.622;2023-02-04T10:31:05;24.30;;;14.77;;
40637;SDS011;26336;44.696;10.622;2023-02-04T10:34:36;20.63;;;14.13;;
40637;SDS011;26336;44.696;10.622;2023-02-04T10:37:42;21.83;;;14.07;;
40637;SDS011;26336;44.696;10.622;2023-02-04T10:40:46;21.93;;;14.83;;
40637;SDS011;26336;44.696;10.622;2023-02-04T10:44:02;20.77;;;15.10;;
40637;SDS011;26336;44.696;10.622;2023-02-04T10:47:17;19.20;;;14.43;;
40637;SDS011;26336;44.696;10.622;2023-02-04T10:50:26;19.67;;;13.83;;
40637;SDS011;26336;44.696;10.622;2023-02-04T10:53:33;21.33;;;12.83;;
40637;SDS011;26336;44.696;10.622;2023-02-04T11:00:21;22.20;;;13.98;;
40637;SDS011;26336;44.696;10.622;2023-02-04T11:03:28;22.85;;;13.35;;
40637;SDS011;26336;44.696;10.622;2023-02-04T11:06:33;17.50;;;12.77;;
40637;SDS011;26336;44.696;10.622;2023-02-04T11:09:39;18.02;;;12.90;;
40637;SDS011;26336;44.696;10.622;2023-02-04T11:19:14;19.50;;;13.43;;
40637;SDS011;26336;44.696;10.622;2023-02-04T11:22:40;15.10;;;11.23;;
40637;SDS011;26336;44.696;10.622;2023-02-04T11:25:46;23.15;;;13.52;;
40637;SDS011;26336;44.696;10.622;2023-02-04T11:32:02;25.65;;;14.77;;
40637;SDS011;26336;44.696;10.622;2023-02-04T11:38:25;21.80;;;14.38;;
40637;SDS011;26336;44.696;10.622;2023-02-04T11:41:30;23.02;;;12.77;;
40637;SDS011;26336;44.696;10.622;2023-02-04T11:44:35;21.80;;;13.13;;
40637;SDS011;26336;44.696;10.622;2023-02-04T11:47:39;18.48;;;13.82;;
40637;SDS011;26336;44.696;10.622;2023-02-04T11:50:58;20.92;;;13.93;;
40637;SDS011;26336;44.696;10.622;2023-02-04T11:54:03;19.48;;;14.57;;
40637;SDS011;26336;44.696;10.622;2023-02-04T11:57:09;21.25;;;13.75;;
40637;SDS011;26336;44.696;10.622;2023-02-04T12:00:15;18.02;;;11.90;;
40637;SDS011;26336;44.696;10.622;2023-02-04T12:03:29;23.77;;;14.40;;
40637;SDS011;26336;44.696;10.622;2023-02-04T12:06:37;17.73;;;11.75;;
40637;SDS011;26336;44.696;10.622;2023-02-04T12:09:45;20.83;;;14.35;;
40637;SDS011;26336;44.696;10.622;2023-02-04T12:12:54;13.50;;;10.32;;
40637;SDS011;26336;44.696;10.622;2023-02-04T12:16:03;14.88;;;10.90;;
40637;SDS011;26336;44.696;10.622;2023-02-04T12:19:08;18.38;;;11.10;;
40637;SDS011;26336;44.696;10.622;2023-02-04T12:22:12;16.35;;;11.75;;
40637;SDS011;26336;44.696;10.622;2023-02-04T12:25:18;17.35;;;11.20;;
40637;SDS011;26336;44.696;10.622;2023-02-04T12:28:22;20.17;;;13.23;;
40637;SDS011;26336;44.696;10.622;2023-02-04T12:31:26;19.02;;;13.40;;
40637;SDS011;26336;44.696;10.622;2023-02-04T12:34:30;16.77;;;11.10;;
40637;SDS011;26336;44.696;10.622;2023-02-04T12:37:34;18.02;;;11.98;;
40637;SDS011;26336;44.696;10.622;2023-02-04T12:40:38;19.25;;;13.77;;
40637;SDS011;26336;44.696;10.622;2023-02-04T12:43:42;18.45;;;12.68;;
40637;SDS011;26336;44.696;10.622;2023-02-04T12:46:46;17.80;;;12.82;;
40637;SDS011;26336;44.696;10.622;2023-02-04T12:49:51;17.00;;;12.15;;
40637;SDS011;26336;44.696;10.622;2023-02-04T12:52:56;18.63;;;12.82;;
40637;SDS011;26336;44.696;10.622;2023-02-04T12:56:01;15.13;;;10.98;;
40637;SDS011;26336;44.696;10.622;2023-02-04T12:59:05;18.40;;;12.57;;
40637;SDS011;26336;44.696;10.622;2023-02-04T13:02:09;18.73;;;11.55;;
40637;SDS011;26336;44.696;10.622;2023-02-04T13:05:14;18.17;;;13.02;;
40637;SDS011;26336;44.696;10.622;2023-02-04T13:08:18;17.98;;;12.48;;
40637;SDS011;26336;44.696;10.622;2023-02-04T13:11:22;18.17;;;11.77;;
40637;SDS011;26336;44.696;10.622;2023-02-04T13:14:26;15.85;;;11.60;;
40637;SDS011;26336;44.696;10.622;2023-02-04T13:17:31;16.25;;;11.88;;
40637;SDS011;26336;44.696;10.622;2023-02-04T13:20:36;15.38;;;12.07;;
40637;SDS011;26336;44.696;10.622;2023-02-04T13:23:43;21.65;;;13.43;;
40637;SDS011;26336;44.696;10.622;2023-02-04T13:26:47;19.38;;;12.85;;
40637;SDS011;26336;44.696;10.622;2023-02-04T13:29:51;21.00;;;11.45;;
40637;SDS011;26336;44.696;10.622;2023-02-04T13:32:55;17.70;;;12.50;;
40637;SDS011;26336;44.696;10.622;2023-02-04T13:35:59;13.60;;;9.80;;
40637;SDS011;26336;44.696;10.622;2023-02-04T13:39:04;17.65;;;11.20;;
40637;SDS011;26336;44.696;10.622;2023-02-04T13:42:08;17.90;;;10.70;;
40637;SDS011;26336;44.696;10.622;2023-02-04T13:45:12;15.98;;;10.02;;
40637;SDS011;26336;44.696;10.622;2023-02-04T13:48:20;13.45;;;10.05;;
40637;SDS011;26336;44.696;10.622;2023-02-04T13:51:24;15.98;;;11.05;;
40637;SDS011;26336;44.696;10.622;2023-02-04T13:54:28;15.63;;;11.07;;
40637;SDS011;26336;44.696;10.622;2023-02-04T13:57:33;17.48;;;11.73;;
40637;SDS011;26336;44.696;10.622;2023-02-04T14:00:36;15.50;;;11.35;;
40637;SDS011;26336;44.696;10.622;2023-02-04T14:03:40;16.33;;;11.45;;
40637;SDS011;26336;44.696;10.622;2023-02-04T14:06:45;14.05;;;9.77;;
40637;SDS011;26336;44.696;10.622;2023-02-04T14:09:49;16.98;;;11.18;;
40637;SDS011;26336;44.696;10.622;2023-02-04T14:16:22;17.83;;;11.35;;
40637;SDS011;26336;44.696;10.622;2023-02-04T14:19:29;16.40;;;11.57;;
40637;SDS011;26336;44.696;10.622;2023-02-04T14:22:33;16.20;;;12.57;;
40637;SDS011;26336;44.696;10.622;2023-02-04T14:25:37;17.60;;;13.02;;
40637;SDS011;26336;44.696;10.622;2023-02-04T14:28:57;16.98;;;13.60;;
40637;SDS011;26336;44.696;10.622;2023-02-04T14:32:01;16.52;;;12.63;;
40637;SDS011;26336;44.696;10.622;2023-02-04T14:35:08;17.23;;;12.05;;
40637;SDS011;26336;44.696;10.622;2023-02-04T14:38:12;17.58;;;12.80;;
40637;SDS011;26336;44.696;10.622;2023-02-04T14:41:21;15.63;;;11.50;;
40637;SDS011;26336;44.696;10.622;2023-02-04T14:44:33;20.65;;;13.43;;
40637;SDS011;26336;44.696;10.622;2023-02-04T14:47:37;15.23;;;10.95;;
40637;SDS011;26336;44.696;10.622;2023-02-04T14:50:42;19.30;;;13.90;;
40637;SDS011;26336;44.696;10.622;2023-02-04T14:53:46;19.20;;;12.80;;
40637;SDS011;26336;44.696;10.622;2023-02-04T14:56:51;20.42;;;13.73;;
40637;SDS011;26336;44.696;10.622;2023-02-04T14:59:55;19.40;;;13.35;;
40637;SDS011;26336;44.696;10.622;2023-02-04T15:02:59;19.75;;;13.65;;
40637;SDS011;26336;44.696;10.622;2023-02-04T15:06:03;23.45;;;14.75;;
40637;SDS011;26336;44.696;10.622;2023-02-04T15:09:10;18.48;;;13.57;;
40637;SDS011;26336;44.696;10.622;2023-02-04T15:12:17;18.80;;;12.93;;
40637;SDS011;26336;44.696;10.622;2023-02-04T15:15:22;19.52;;;14.15;;
40637;SDS011;26336;44.696;10.622;2023-02-04T15:18:43;25.30;;;15.68;;
40637;SDS011;26336;44.696;10.622;2023-02-04T15:21:47;23.63;;;15.68;;
40637;SDS011;26336;44.696;10.622;2023-02-04T15:24:51;20.98;;;15.18;;
40637;SDS011;26336;44.696;10.622;2023-02-04T15:27:55;19.50;;;14.75;;
40637;SDS011;26336;44.696;10.622;2023-02-04T15:30:59;24.48;;;16.45;;
40637;SDS011;26336;44.696;10.622;2023-02-04T15:34:04;23.95;;;15.80;;
40637;SDS011;26336;44.696;10.622;2023-02-04T15:37:08;22.65;;;15.65;;
40637;SDS011;26336;44.696;10.622;2023-02-04T15:40:18;21.77;;;15.05;;
40637;SDS011;26336;44.696;10.622;2023-02-04T15:43:22;21.95;;;15.68;;
40637;SDS011;26336;44.696;10.622;2023-02-04T15:46:26;26.95;;;17.33;;
40637;SDS011;26336;44.696;10.622;2023-02-04T15:49:30;24.33;;;17.00;;
40637;SDS011;26336;44.696;10.622;2023-02-04T15:52:34;28.48;;;17.27;;
40637;SDS011;26336;44.696;10.622;2023-02-04T15:55:39;23.38;;;17.77;;
40637;SDS011;26336;44.696;10.622;2023-02-04T15:58:43;27.48;;;17.10;;
40637;SDS011;26336;44.696;10.622;2023-02-04T16:01:46;24.08;;;17.33;;
40637;SDS011;26336;44.696;10.622;2023-02-04T16:04:53;25.25;;;16.88;;
40637;SDS011;26336;44.696;10.622;2023-02-04T16:07:57;23.45;;;17.73;;
40637;SDS011;26336;44.696;10.622;2023-02-04T16:11:00;23.20;;;17.90;;
40637;SDS011;26336;44.696;10.622;2023-02-04T16:14:05;27.17;;;18.67;;
40637;SDS011;26336;44.696;10.622;2023-02-04T16:17:09;28.95;;;18.58;;
40637;SDS011;26336;44.696;10.622;2023-02-04T16:20:13;30.08;;;19.20;;
40637;SDS011;26336;44.696;10.622;2023-02-04T16:23:18;29.50;;;18.00;;
40637;SDS011;26336;44.696;10.622;2023-02-04T16:26:21;32.05;;;20.38;;
40637;SDS011;26336;44.696;10.622;2023-02-04T16:29:25;32.65;;;21.75;;
40637;SDS011;26336;44.696;10.622;2023-02-04T16:32:30;41.47;;;23.30;;
40637;SDS011;26336;44.696;10.622;2023-02-04T16:35:54;76.82;;;42.97;;
40637;SDS011;26336;44.696;10.622;2023-02-04T16:39:09;147.40;;;85.93;;
40637;SDS011;26336;44.696;10.622;2023-02-04T16:42:12;147.93;;;86.30;;
40637;SDS011;26336;44.696;10.622;2023-02-04T16:45:17;160.73;;;92.93;;
40637;SDS011;26336;44.696;10.622;2023-02-04T16:48:21;172.07;;;97.57;;
40637;SDS011;26336;44.696;10.622;2023-02-04T16:51:28;172.63;;;100.07;;
40637;SDS011;26336;44.696;10.622;2023-02-04T16:54:33;169.60;;;96.43;;
40637;SDS011;26336;44.696;10.622;2023-02-04T16:57:37;168.03;;;96.30;;
40637;SDS011;26336;44.696;10.622;2023-02-04T17:00:41;173.07;;;99.07;;
40637;SDS011;26336;44.696;10.622;2023-02-04T17:03:46;172.33;;;97.93;;
40637;SDS011;26336;44.696;10.622;2023-02-04T17:06:53;174.93;;;97.40;;
40637;SDS011;26336;44.696;10.622;2023-02-04T17:09:57;171.03;;;94.13;;
40637;SDS011;26336;44.696;10.622;2023-02-04T17:13:01;163.77;;;92.53;;
40637;SDS011;26336;44.696;10.622;2023-02-04T17:16:05;179.47;;;101.00;;
40637;SDS011;26336;44.696;10.622;2023-02-04T17:19:09;174.87;;;97.37;;
40637;SDS011;26336;44.696;10.622;2023-02-04T17:22:14;177.87;;;97.50;;
40637;SDS011;26336;44.696;10.622;2023-02-04T17:25:19;170.07;;;94.63;;
40637;SDS011;26336;44.696;10.622;2023-02-04T17:28:25;157.40;;;88.80;;
40637;SDS011;26336;44.696;10.622;2023-02-04T17:31:29;168.90;;;95.57;;
40637;SDS011;26336;44.696;10.622;2023-02-04T17:34:33;158.00;;;93.00;;
40637;SDS011;26336;44.696;10.622;2023-02-04T17:37:37;136.23;;;82.53;;
40637;SDS011;26336;44.696;10.622;2023-02-04T17:40:41;154.37;;;89.40;;
40637;SDS011;26336;44.696;10.622;2023-02-04T17:43:45;150.17;;;89.90;;
40637;SDS011;26336;44.696;10.622;2023-02-04T17:46:49;157.07;;;88.57;;
40637;SDS011;26336;44.696;10.622;2023-02-04T17:49:53;160.57;;;94.37;;
40637;SDS011;26336;44.696;10.622;2023-02-04T17:52:58;155.23;;;91.90;;
40637;SDS011;26336;44.696;10.622;2023-02-04T17:56:02;151.37;;;84.43;;
40637;SDS011;26336;44.696;10.622;2023-02-04T17:59:11;147.73;;;84.87;;
40637;SDS011;26336;44.696;10.622;2023-02-04T18:02:19;152.37;;;88.27;;
40637;SDS011;26336;44.696;10.622;2023-02-04T18:05:26;143.73;;;82.27;;
40637;SDS011;26336;44.696;10.622;2023-02-04T18:08:34;130.97;;;77.47;;
40637;SDS011;26336;44.696;10.622;2023-02-04T18:11:42;146.73;;;82.97;;
40637;SDS011;26336;44.696;10.622;2023-02-04T18:14:46;139.97;;;81.70;;
40637;SDS011;26336;44.696;10.622;2023-02-04T18:17:51;154.93;;;90.20;;